Time;durP1;ratioP1;P1;durP2;ratioP2;P2;SDS_P1;SDS_P2;PMS_P1;PMS_P2;Temp;Humidity;BMP_temperature;BMP_pressure;BME280_temperature;BME280_humidity;BME280_pressure;Samples;Min_cycle;Max_cycle;Signal;HPM_P1;HPM_P2
2021/10/07 00:00:41;;;;;;;4.60;1.50;;;10.80;99.90;;;;;;4920343;29;20505;-73
2021/10/07 00:03:07;;;;;;;2.72;1.38;;;10.80;99.90;;;;;;4919700;29;20510;-73
2021/10/07 00:05:33;;;;;;;3.22;1.30;;;10.90;99.90;;;;;;4918639;29;20032;-74
2021/10/07 00:07:59;;;;;;;4.97;1.60;;;11.00;99.90;;;;;;4919029;29;20479;-73
2021/10/07 00:10:25;;;;;;;4.15;1.23;;;11.00;99.90;;;;;;4918176;29;20032;-73
2021/10/07 00:12:50;;;;;;;3.15;1.20;;;11.00;99.90;;;;;;4918948;29;20021;-73
2021/10/07 00:15:16;;;;;;;5.93;1.30;;;10.90;99.90;;;;;;4916704;29;20040;-73
2021/10/07 00:17:42;;;;;;;5.50;1.38;;;10.90;99.90;;;;;;4918910;29;20028;-73
2021/10/07 00:20:11;;;;;;;3.75;1.50;;;10.90;99.90;;;;;;4918398;29;20032;-73
2021/10/07 00:22:39;;;;;;;2.90;1.38;;;10.90;99.90;;;;;;4918148;29;20028;-73
2021/10/07 00:25:07;;;;;;;2.28;1.10;;;11.00;99.90;;;;;;4917267;29;20028;-73
2021/10/07 00:27:34;;;;;;;4.93;1.48;;;10.90;99.90;;;;;;4917433;29;20024;-73
2021/10/07 00:30:04;;;;;;;5.70;1.30;;;10.80;99.90;;;;;;4918576;29;20021;-73
2021/10/07 00:32:35;;;;;;;3.63;1.20;;;10.80;99.90;;;;;;4918488;29;20016;-73
2021/10/07 00:35:34;;;;;;;2.28;1.00;;;10.80;99.90;;;;;;4917608;29;20071;-73
2021/10/07 00:40:49;;;;;;;3.80;1.40;;;10.80;99.90;;;;;;4918560;29;20111;-74
2021/10/07 00:43:14;;;;;;;4.68;1.35;;;10.90;99.90;;;;;;4918487;29;20390;-74
2021/10/07 00:45:40;;;;;;;3.03;1.30;;;10.80;99.90;;;;;;4917245;29;20024;-74
2021/10/07 00:48:06;;;;;;;5.03;1.48;;;10.60;99.90;;;;;;4917998;29;20056;-74
2021/10/07 00:50:32;;;;;;;4.80;1.58;;;10.60;99.90;;;;;;4917962;29;20028;-75
2021/10/07 00:52:57;;;;;;;3.28;1.10;;;10.60;99.90;;;;;;4916359;29;20447;-74
2021/10/07 00:55:24;;;;;;;4.28;1.35;;;10.60;99.90;;;;;;4917304;29;20454;-74
2021/10/07 00:57:50;;;;;;;3.88;1.63;;;10.60;99.90;;;;;;4917821;29;20056;-74
2021/10/07 01:00:16;;;;;;;2.67;1.42;;;10.70;99.90;;;;;;4917972;29;20074;-72
2021/10/07 01:02:41;;;;;;;5.10;1.40;;;10.70;99.90;;;;;;4938087;29;20087;-72
2021/10/07 01:05:08;;;;;;;2.30;1.20;;;10.70;99.90;;;;;;4924174;29;20054;-73
2021/10/07 01:07:34;;;;;;;3.33;1.30;;;10.70;99.90;;;;;;4917747;29;20024;-73
2021/10/07 01:09:59;;;;;;;3.35;1.10;;;10.80;99.90;;;;;;4917769;29;20501;-73
2021/10/07 01:12:25;;;;;;;2.40;0.80;;;10.80;99.90;;;;;;4917987;29;20024;-73
2021/10/07 01:14:52;;;;;;;5.65;1.33;;;10.70;99.90;;;;;;4917218;29;20083;-73
2021/10/07 01:17:27;;;;;;;2.97;1.27;;;10.70;99.90;;;;;;4916236;29;20564;-74
2021/10/07 01:19:55;;;;;;;9.00;1.60;;;10.70;99.90;;;;;;4917289;29;20491;-72
2021/10/07 01:22:23;;;;;;;3.75;0.93;;;10.80;99.90;;;;;;4907855;29;20526;-72
2021/10/07 01:24:49;;;;;;;3.28;1.27;;;10.70;99.90;;;;;;4900647;29;20032;-72
2021/10/07 01:27:16;;;;;;;3.25;1.40;;;10.70;99.90;;;;;;4916054;29;20024;-72
2021/10/07 01:29:42;;;;;;;1.83;1.40;;;10.80;99.90;;;;;;4898686;29;20108;-73
2021/10/07 01:32:08;;;;;;;2.88;1.10;;;10.80;99.90;;;;;;4898731;29;20089;-72
2021/10/07 01:34:35;;;;;;;3.67;1.30;;;10.80;99.90;;;;;;4898052;29;20029;-74
2021/10/07 01:37:01;;;;;;;3.70;1.38;;;11.00;99.90;;;;;;4912963;29;20111;-74
2021/10/07 01:39:28;;;;;;;4.78;2.00;;;11.00;99.90;;;;;;4898215;29;20050;-74
2021/10/07 01:41:54;;;;;;;2.28;1.23;;;10.80;99.90;;;;;;4898239;29;20029;-74
2021/10/07 01:44:22;;;;;;;8.13;1.83;;;10.60;99.90;;;;;;4897499;29;20060;-74
2021/10/07 01:46:48;;;;;;;3.83;1.63;;;10.80;99.90;;;;;;4897798;29;20033;-74
2021/10/07 01:49:14;;;;;;;4.63;1.50;;;10.80;99.90;;;;;;4897823;29;20080;-74
2021/10/07 01:51:39;;;;;;;3.10;1.45;;;10.70;99.90;;;;;;4902165;29;20021;-74
2021/10/07 01:54:05;;;;;;;5.53;1.65;;;10.80;99.90;;;;;;4916740;29;20080;-74
2021/10/07 01:56:32;;;;;;;4.75;1.67;;;10.90;99.90;;;;;;4916191;29;20030;-74
2021/10/07 01:58:58;;;;;;;3.20;1.77;;;10.80;99.90;;;;;;4915658;29;20534;-74
2021/10/07 02:01:24;;;;;;;2.78;1.30;;;10.80;99.90;;;;;;4917198;29;20032;-74
2021/10/07 02:03:50;;;;;;;9.65;2.10;;;10.80;99.90;;;;;;4916426;29;20094;-74
2021/10/07 02:06:16;;;;;;;2.72;1.70;;;10.80;99.90;;;;;;4916038;29;20039;-74
2021/10/07 02:08:42;;;;;;;4.85;1.70;;;10.80;99.90;;;;;;4916338;29;20024;-74
2021/10/07 02:11:08;;;;;;;4.63;1.30;;;10.80;99.90;;;;;;4914960;29;20036;-74
2021/10/07 02:13:33;;;;;;;3.95;1.20;;;10.80;99.90;;;;;;4915022;29;20411;-74
2021/10/07 02:15:59;;;;;;;3.15;1.35;;;10.60;99.90;;;;;;4915650;29;20024;-74
2021/10/07 02:18:25;;;;;;;2.85;1.23;;;10.60;99.90;;;;;;4930697;29;20897;-74
2021/10/07 02:20:52;;;;;;;4.95;1.20;;;10.50;99.90;;;;;;4916252;29;20092;-74
2021/10/07 02:23:18;;;;;;;1.85;1.33;;;10.50;99.90;;;;;;4915743;29;20115;-75
2021/10/07 02:25:44;;;;;;;2.88;1.50;;;10.70;99.90;;;;;;4915451;29;20519;-74
2021/10/07 02:28:10;;;;;;;2.88;1.50;;;10.80;99.90;;;;;;4916115;29;20039;-74
2021/10/07 02:30:35;;;;;;;2.85;1.30;;;10.80;99.90;;;;;;4916300;29;20028;-74
2021/10/07 02:33:01;;;;;;;4.97;1.70;;;10.80;99.90;;;;;;4915491;29;20498;-74
2021/10/07 02:35:27;;;;;;;2.55;1.17;;;10.90;99.90;;;;;;4915451;29;20505;-74
2021/10/07 02:37:53;;;;;;;4.38;1.80;;;10.70;99.90;;;;;;4914143;29;20030;-74
2021/10/07 02:40:19;;;;;;;4.63;2.45;;;10.90;99.90;;;;;;4915510;29;20111;-74
2021/10/07 02:42:46;;;;;;;7.40;2.25;;;11.00;99.90;;;;;;4916121;29;20036;-74
2021/10/07 02:45:14;;;;;;;8.52;2.20;;;10.90;99.90;;;;;;4915118;29;20062;-74
2021/10/07 02:47:40;;;;;;;4.47;1.90;;;10.90;99.90;;;;;;4915960;29;20391;-74
2021/10/07 02:50:08;;;;;;;5.93;2.20;;;10.90;99.90;;;;;;4915560;29;20039;-74
2021/10/07 02:52:33;;;;;;;5.25;2.40;;;10.80;99.90;;;;;;4915271;29;20036;-74
2021/10/07 02:54:59;;;;;;;4.90;2.30;;;10.80;99.90;;;;;;4915083;29;20040;-74
2021/10/07 02:57:24;;;;;;;4.45;1.92;;;10.80;99.90;;;;;;4914617;29;20176;-74
2021/10/07 02:59:50;;;;;;;3.95;1.98;;;10.70;99.90;;;;;;4915690;29;20123;-75
2021/10/07 03:02:16;;;;;;;7.70;2.42;;;10.70;99.90;;;;;;4915910;29;20036;-74
2021/10/07 03:04:43;;;;;;;3.28;2.38;;;10.60;99.90;;;;;;4915138;29;20077;-75
2021/10/07 03:07:12;;;;;;;5.78;2.50;;;10.70;99.90;;;;;;4915637;29;20502;-75
2021/10/07 03:09:40;;;;;;;5.95;1.98;;;10.60;99.90;;;;;;4915563;29;20024;-74
2021/10/07 03:12:07;;;;;;;2.92;2.20;;;10.60;99.90;;;;;;4914603;29;20039;-75
2021/10/07 03:14:39;;;;;;;6.32;2.55;;;10.60;99.90;;;;;;4914785;29;20410;-75
2021/10/07 03:17:05;;;;;;;3.55;2.30;;;10.60;99.90;;;;;;4914332;29;20032;-74
2021/10/07 03:19:31;;;;;;;5.65;2.53;;;10.60;99.90;;;;;;4914271;29;20072;-75
2021/10/07 03:21:57;;;;;;;3.50;2.30;;;10.70;99.90;;;;;;4915187;29;20119;-74
2021/10/07 03:24:22;;;;;;;5.85;2.85;;;10.70;99.90;;;;;;4918183;29;20179;-74
2021/10/07 03:26:48;;;;;;;6.72;2.92;;;10.70;99.90;;;;;;4919499;29;20024;-75
2021/10/07 03:29:14;;;;;;;6.75;2.75;;;10.70;99.90;;;;;;4919173;29;20028;-74
2021/10/07 03:31:39;;;;;;;6.80;2.17;;;10.70;99.90;;;;;;4919275;29;20025;-74
2021/10/07 03:34:05;;;;;;;7.03;2.20;;;10.70;99.90;;;;;;4919247;29;20067;-74
2021/10/07 03:36:31;;;;;;;5.30;2.50;;;10.70;99.90;;;;;;4918487;29;20111;-74
2021/10/07 03:38:56;;;;;;;2.97;2.10;;;10.70;99.90;;;;;;4918693;29;20032;-74
2021/10/07 03:41:22;;;;;;;9.82;2.30;;;10.80;99.90;;;;;;4918112;29;20068;-74
2021/10/07 03:43:49;;;;;;;5.10;2.20;;;10.60;99.90;;;;;;4919253;29;20044;-74
2021/10/07 03:46:16;;;;;;;6.50;1.92;;;10.30;99.90;;;;;;4918398;29;20028;-75
2021/10/07 03:48:43;;;;;;;2.95;2.03;;;10.30;99.90;;;;;;4919063;29;20463;-72
2021/10/07 03:51:08;;;;;;;3.83;1.92;;;10.40;99.90;;;;;;4918743;29;20031;-75
2021/10/07 03:53:34;;;;;;;4.03;1.92;;;10.40;99.90;;;;;;4918967;29;20032;-75
2021/10/07 03:56:00;;;;;;;7.13;2.20;;;10.40;99.90;;;;;;4918389;29;20030;-75
2021/10/07 03:58:25;;;;;;;5.00;1.90;;;10.40;99.90;;;;;;4918777;29;20039;-73
2021/10/07 04:00:51;;;;;;;6.13;2.03;;;10.40;99.90;;;;;;4918973;29;20111;-73
2021/10/07 04:03:16;;;;;;;5.07;2.10;;;10.60;99.90;;;;;;4919466;29;20036;-73
2021/10/07 04:05:42;;;;;;;4.07;2.03;;;10.40;99.90;;;;;;4924556;29;20021;-75
2021/10/07 04:08:08;;;;;;;7.22;2.00;;;10.40;99.90;;;;;;4911793;29;20035;-81
2021/10/07 04:10:34;;;;;;;5.10;2.10;;;10.30;99.90;;;;;;4903132;29;20024;-83
2021/10/07 04:13:00;;;;;;;4.28;2.78;;;10.50;99.90;;;;;;4910932;29;20476;-79
2021/10/07 04:15:25;;;;;;;6.97;3.05;;;10.70;99.90;;;;;;4914283;29;20039;-81
2021/10/07 04:17:51;;;;;;;4.28;2.50;;;10.70;99.90;;;;;;4909473;29;20032;-79
2021/10/07 04:20:17;;;;;;;3.47;2.60;;;10.60;99.90;;;;;;4900501;29;20039;-81
2021/10/07 04:22:43;;;;;;;5.85;2.92;;;10.60;99.90;;;;;;4901542;29;20074;-80
2021/10/07 04:25:09;;;;;;;7.15;3.30;;;10.60;99.90;;;;;;4899379;29;20427;-81
2021/10/07 04:27:35;;;;;;;4.53;3.00;;;10.70;99.90;;;;;;4901170;29;20476;-81
2021/10/07 04:30:05;;;;;;;6.30;3.35;;;10.80;99.90;;;;;;4901496;29;20088;-80
2021/10/07 04:32:31;;;;;;;4.72;2.53;;;10.70;99.90;;;;;;4901687;29;20420;-81
2021/10/07 04:34:57;;;;;;;4.82;2.80;;;10.70;99.90;;;;;;4901597;29;20036;-80
2021/10/07 04:37:23;;;;;;;4.60;2.70;;;10.70;99.90;;;;;;4902446;29;20058;-80
2021/10/07 04:39:49;;;;;;;6.18;2.85;;;10.70;99.90;;;;;;4913204;29;20120;-80
2021/10/07 04:42:14;;;;;;;5.28;3.22;;;10.70;99.90;;;;;;4884732;29;20039;-81
2021/10/07 04:44:40;;;;;;;5.90;3.08;;;10.70;99.90;;;;;;4883304;29;20036;-81
2021/10/07 04:47:06;;;;;;;5.57;3.13;;;10.60;99.90;;;;;;4883397;29;20027;-81
2021/10/07 04:49:31;;;;;;;5.45;3.33;;;10.60;99.90;;;;;;4884576;29;20089;-82
2021/10/07 04:51:57;;;;;;;8.80;3.55;;;10.60;99.90;;;;;;4885523;29;20033;-82
2021/10/07 04:54:23;;;;;;;6.57;3.45;;;10.60;99.90;;;;;;4881984;29;20432;-81
2021/10/07 04:56:49;;;;;;;3.67;2.80;;;10.50;99.90;;;;;;4882793;29;20085;-80
2021/10/07 04:59:14;;;;;;;6.78;2.72;;;10.50;99.90;;;;;;4882723;29;20119;-82
2021/10/07 05:01:40;;;;;;;5.07;3.20;;;10.60;99.90;;;;;;4884287;29;20036;-82
2021/10/07 05:04:06;;;;;;;4.05;2.67;;;10.50;99.90;;;;;;4886244;29;20033;-80
2021/10/07 05:06:31;;;;;;;6.22;3.20;;;10.50;99.90;;;;;;4899861;29;20645;-80
2021/10/07 05:08:57;;;;;;;8.80;3.17;;;10.60;99.90;;;;;;4914466;29;20064;-81
2021/10/07 05:11:23;;;;;;;5.22;2.70;;;10.60;99.90;;;;;;4900756;29;20071;-81
2021/10/07 05:13:49;;;;;;;7.80;3.20;;;10.60;99.90;;;;;;4902656;29;20033;-82
2021/10/07 05:16:14;;;;;;;4.65;3.10;;;10.50;99.90;;;;;;4920738;29;20040;-81
2021/10/07 05:18:40;;;;;;;4.15;3.40;;;10.40;99.90;;;;;;4903431;29;20063;-78
2021/10/07 05:21:06;;;;;;;6.28;4.30;;;10.50;99.90;;;;;;4901898;29;20048;-80
2021/10/07 05:23:34;;;;;;;7.35;4.30;;;10.60;99.90;;;;;;4923528;29;20098;-81
2021/10/07 05:26:00;;;;;;;9.85;4.68;;;10.60;99.90;;;;;;4924606;29;20411;-78
2021/10/07 05:28:26;;;;;;;5.88;3.65;;;10.50;99.90;;;;;;4921721;29;20024;-80
2021/10/07 05:30:52;;;;;;;6.88;3.55;;;10.50;99.90;;;;;;4921794;29;20483;-81
2021/10/07 05:33:20;;;;;;;3.25;3.00;;;10.40;99.90;;;;;;4921423;29;20040;-80
2021/10/07 05:35:46;;;;;;;3.83;2.40;;;10.30;99.90;;;;;;4926849;29;20020;-81
2021/10/07 05:38:12;;;;;;;6.38;2.13;;;10.40;99.90;;;;;;4920516;29;20035;-82
2021/10/07 05:40:38;;;;;;;4.15;2.10;;;10.30;99.90;;;;;;4935008;29;20039;-82
2021/10/07 05:43:04;;;;;;;4.90;2.20;;;10.30;99.90;;;;;;4924975;29;20076;-80
2021/10/07 05:45:29;;;;;;;4.38;2.30;;;10.30;99.90;;;;;;4925481;29;20054;-81
2021/10/07 05:47:55;;;;;;;4.10;2.28;;;10.30;99.90;;;;;;4922738;29;20025;-81
2021/10/07 05:50:20;;;;;;;4.68;2.63;;;10.30;99.90;;;;;;4922003;29;20035;-82
2021/10/07 05:52:46;;;;;;;2.47;1.83;;;10.40;99.90;;;;;;4921356;29;20434;-81
2021/10/07 05:55:12;;;;;;;4.57;1.83;;;10.30;99.90;;;;;;4915854;29;20483;-81
2021/10/07 05:57:38;;;;;;;4.88;2.58;;;10.20;99.90;;;;;;4900525;29;20028;-81
2021/10/07 06:00:07;;;;;;;3.05;2.30;;;10.40;99.90;;;;;;4901831;29;20035;-81
2021/10/07 06:02:36;;;;;;;3.20;2.50;;;10.60;99.90;;;;;;4900979;29;20494;-81
2021/10/07 06:05:04;;;;;;;5.15;2.95;;;10.40;99.90;;;;;;4896610;29;20021;-74
2021/10/07 06:07:30;;;;;;;5.80;2.65;;;10.60;99.90;;;;;;4897352;29;20025;-75
2021/10/07 06:09:55;;;;;;;4.93;2.50;;;10.60;99.90;;;;;;4897274;29;20056;-75
2021/10/07 06:12:21;;;;;;;5.20;2.65;;;10.60;99.90;;;;;;4898075;29;20036;-75
2021/10/07 06:14:47;;;;;;;4.45;2.65;;;10.60;99.90;;;;;;4897900;29;20040;-76
2021/10/07 06:17:14;;;;;;;4.07;2.95;;;10.80;99.90;;;;;;4896605;29;20040;-75
2021/10/07 06:19:41;;;;;;;5.15;3.03;;;10.90;99.90;;;;;;4898484;29;20353;-72
2021/10/07 06:22:07;;;;;;;5.47;3.10;;;10.90;99.90;;;;;;4889819;29;20029;-74
2021/10/07 06:24:33;;;;;;;4.30;2.88;;;10.90;99.90;;;;;;4877855;29;20111;-75
2021/10/07 06:26:59;;;;;;;5.82;2.80;;;10.90;99.90;;;;;;4894046;29;20484;-74
2021/10/07 06:29:25;;;;;;;5.88;3.80;;;10.80;99.90;;;;;;4878668;29;20032;-75
2021/10/07 06:31:51;;;;;;;5.10;2.75;;;10.90;99.90;;;;;;4879914;29;20029;-74
2021/10/07 06:34:16;;;;;;;2.63;2.10;;;10.80;99.90;;;;;;4878837;29;20025;-73
2021/10/07 06:36:42;;;;;;;2.65;1.90;;;10.90;99.90;;;;;;4893070;29;20065;-74
2021/10/07 06:39:08;;;;;;;7.03;2.30;;;10.90;99.90;;;;;;4879741;29;20057;-74
2021/10/07 06:41:34;;;;;;;5.05;2.55;;;10.90;99.90;;;;;;4879214;29;20085;-74
2021/10/07 06:44:00;;;;;;;4.78;2.38;;;11.00;99.90;;;;;;4879192;29;20057;-75
2021/10/07 06:46:26;;;;;;;5.43;2.38;;;11.00;99.90;;;;;;4878403;29;20072;-74
2021/10/07 06:48:55;;;;;;;4.70;2.35;;;11.20;99.90;;;;;;4879020;29;20095;-75
2021/10/07 06:51:25;;;;;;;4.70;2.55;;;11.20;99.90;;;;;;4877617;29;20022;-74
2021/10/07 06:53:56;;;;;;;7.18;2.33;;;11.20;99.90;;;;;;4878824;29;20052;-74
2021/10/07 06:56:23;;;;;;;4.30;2.30;;;11.10;99.90;;;;;;4892928;29;20539;-75
2021/10/07 06:58:52;;;;;;;3.30;2.17;;;11.20;99.90;;;;;;4878518;29;20100;-75
2021/10/07 07:01:26;;;;;;;2.10;1.90;;;11.20;99.90;;;;;;4893241;29;20036;-75
2021/10/07 07:03:54;;;;;;;3.22;2.30;;;11.20;99.90;;;;;;4878848;29;20033;-75
2021/10/07 07:06:21;;;;;;;8.00;2.20;;;11.20;99.90;;;;;;4878850;29;20100;-75
2021/10/07 07:08:46;;;;;;;8.35;1.98;;;11.10;99.90;;;;;;4879613;29;20029;-74
2021/10/07 07:11:12;;;;;;;5.40;2.33;;;11.20;99.90;;;;;;4878829;29;20029;-74
2021/10/07 07:13:38;;;;;;;7.47;1.95;;;11.20;99.90;;;;;;4878450;29;20120;-74
2021/10/07 07:16:05;;;;;;;7.97;2.25;;;11.30;99.90;;;;;;4878376;29;20033;-74
2021/10/07 07:18:30;;;;;;;6.78;1.95;;;11.30;99.90;;;;;;4878367;29;20029;-75
2021/10/07 07:20:56;;;;;;;5.25;1.70;;;11.20;99.90;;;;;;4893035;29;20040;-75
2021/10/07 07:23:22;;;;;;;8.32;1.80;;;11.10;99.90;;;;;;4914008;29;20036;-74
2021/10/07 07:25:47;;;;;;;6.78;1.73;;;10.90;99.90;;;;;;4915925;29;20072;-74
2021/10/07 07:28:13;;;;;;;2.17;1.80;;;10.90;99.90;;;;;;4905740;29;20384;-75
2021/10/07 07:30:40;;;;;;;2.30;1.42;;;11.10;99.90;;;;;;4897447;29;20024;-74
2021/10/07 07:33:06;;;;;;;5.28;1.92;;;11.20;99.90;;;;;;4898940;29;20032;-74
2021/10/07 07:35:33;;;;;;;5.47;1.70;;;11.20;99.90;;;;;;4898234;29;20028;-73
2021/10/07 07:38:00;;;;;;;2.38;1.70;;;11.40;99.90;;;;;;4896814;29;20134;-73
2021/10/07 07:40:27;;;;;;;4.57;1.75;;;11.50;99.90;;;;;;4897215;29;20445;-75
2021/10/07 07:42:53;;;;;;;2.33;1.42;;;11.40;99.90;;;;;;4897550;29;20027;-75
2021/10/07 07:45:19;;;;;;;4.80;2.13;;;11.20;99.90;;;;;;4911541;29;20061;-75
2021/10/07 07:47:45;;;;;;;2.17;1.30;;;11.20;99.90;;;;;;4897439;29;20033;-76
2021/10/07 07:50:12;;;;;;;5.63;1.60;;;11.40;99.90;;;;;;4896393;29;20160;-75
2021/10/07 07:52:39;;;;;;;4.25;1.60;;;11.20;99.90;;;;;;4898938;29;20025;-75
2021/10/07 07:55:06;;;;;;;2.28;1.40;;;11.20;99.90;;;;;;4897713;29;20028;-75
2021/10/07 07:57:32;;;;;;;3.85;1.75;;;11.30;99.90;;;;;;4902366;29;20028;-75
2021/10/07 07:59:58;;;;;;;2.20;1.45;;;11.70;99.90;;;;;;4916915;29;20024;-72
2021/10/07 08:02:24;;;;;;;5.97;1.75;;;12.00;99.90;;;;;;4916125;29;20183;-73
2021/10/07 08:04:51;;;;;;;3.10;1.40;;;11.90;99.90;;;;;;4914960;29;20047;-73
2021/10/07 08:07:17;;;;;;;1.83;1.23;;;11.90;99.90;;;;;;4914455;29;20052;-74
2021/10/07 08:09:45;;;;;;;3.63;1.40;;;11.90;99.90;;;;;;4915655;29;20398;-74
2021/10/07 08:12:13;;;;;;;3.97;1.40;;;11.90;99.90;;;;;;4921515;29;20020;-76
2021/10/07 08:14:41;;;;;;;2.15;1.40;;;12.10;99.90;;;;;;4917565;29;20506;-74
2021/10/07 08:17:07;;;;;;;2.95;1.52;;;12.30;99.90;;;;;;4919487;29;20065;-74
2021/10/07 08:19:33;;;;;;;3.38;1.23;;;12.30;99.90;;;;;;4919266;29;20032;-74
2021/10/07 08:21:59;;;;;;;2.22;1.83;;;12.20;99.90;;;;;;4919732;29;20440;-75
2021/10/07 08:24:24;;;;;;;9.63;2.35;;;12.20;99.90;;;;;;4918459;29;20028;-73
2021/10/07 08:26:50;;;;;;;2.45;1.88;;;12.00;99.90;;;;;;4918738;29;20103;-74
2021/10/07 08:29:18;;;;;;;4.20;2.03;;;12.00;99.90;;;;;;4922442;29;20486;-74
2021/10/07 08:31:44;;;;;;;3.28;1.83;;;12.10;99.90;;;;;;4930458;29;20028;-73
2021/10/07 08:34:11;;;;;;;4.60;2.08;;;12.20;99.90;;;;;;4922208;29;20038;-75
2021/10/07 08:36:42;;;;;;;2.72;1.83;;;12.60;99.90;;;;;;4938775;29;20036;-74
2021/10/07 08:39:09;;;;;;;5.93;2.35;;;12.70;99.90;;;;;;4923079;29;20055;-73
2021/10/07 08:41:35;;;;;;;3.85;1.98;;;12.60;99.90;;;;;;4923114;29;20052;-73
2021/10/07 08:44:02;;;;;;;2.70;2.17;;;12.70;99.90;;;;;;4927783;29;20476;-74
2021/10/07 08:46:28;;;;;;;2.22;2.00;;;12.50;99.90;;;;;;4919653;29;20487;-74
2021/10/07 08:48:54;;;;;;;2.78;2.47;;;12.70;99.90;;;;;;4918115;29;20066;-73
2021/10/07 08:51:20;;;;;;;3.42;2.53;;;12.80;99.90;;;;;;4918263;29;20079;-73
2021/10/07 08:53:46;;;;;;;4.82;2.90;;;13.00;99.90;;;;;;4917952;29;20032;-73
2021/10/07 08:56:12;;;;;;;3.13;2.65;;;12.90;99.90;;;;;;4917634;29;20024;-73
2021/10/07 08:58:38;;;;;;;5.30;3.20;;;13.10;99.90;;;;;;4922044;29;20166;-74
2021/10/07 09:01:06;;;;;;;16.15;4.45;;;13.50;99.90;;;;;;4924199;29;20035;-74
2021/10/07 09:03:38;;;;;;;6.57;3.22;;;13.50;99.90;;;;;;4924921;29;20058;-74
2021/10/07 09:06:11;;;;;;;4.00;3.40;;;13.50;99.90;;;;;;4917934;29;20126;-73
2021/10/07 09:09:06;;;;;;;3.30;2.88;;;13.70;99.90;;;;;;4928661;29;20028;-73
2021/10/07 09:11:32;;;;;;;3.75;2.22;;;14.00;99.90;;;;;;4917699;29;20036;-73
2021/10/07 09:14:03;;;;;;;2.78;2.53;;;13.80;99.90;;;;;;4918730;29;20060;-74
2021/10/07 09:16:49;;;;;;;6.47;2.70;;;13.80;99.90;;;;;;4916086;29;20024;-73
2021/10/07 09:19:32;;;;;;;6.10;2.65;;;13.90;99.90;;;;;;4917780;29;20071;-73
2021/10/07 09:22:24;;;;;;;3.38;2.10;;;13.90;99.90;;;;;;4916323;29;20080;-74
2021/10/07 09:24:55;;;;;;;5.13;2.45;;;14.10;99.90;;;;;;4916785;29;20039;-74
2021/10/07 09:27:23;;;;;;;2.88;2.45;;;14.10;99.90;;;;;;4914630;29;20025;-73
2021/10/07 09:29:50;;;;;;;4.05;2.70;;;13.80;99.90;;;;;;4898297;29;20559;-73
2021/10/07 09:32:29;;;;;;;3.40;2.03;;;13.70;99.90;;;;;;4898438;29;20028;-74
2021/10/07 09:34:56;;;;;;;2.50;2.30;;;13.60;99.90;;;;;;4917076;29;20032;-74
2021/10/07 09:37:26;;;;;;;6.80;2.40;;;13.50;99.90;;;;;;4920406;29;20053;-71
2021/10/07 09:40:06;;;;;;;3.13;2.08;;;13.50;99.90;;;;;;4898533;29;20454;-74
2021/10/07 09:42:35;;;;;;;4.35;2.50;;;13.70;99.90;;;;;;4913271;29;20112;-74
2021/10/07 09:45:00;;;;;;;3.13;2.67;;;13.70;99.90;;;;;;4897757;29;20076;-74
2021/10/07 09:47:31;;;;;;;4.22;2.50;;;13.70;99.90;;;;;;4912871;29;20032;-74
2021/10/07 09:50:22;;;;;;;5.55;2.58;;;13.50;99.90;;;;;;4898324;29;20040;-74
2021/10/07 09:52:56;;;;;;;3.60;2.75;;;13.50;99.90;;;;;;4898099;29;20112;-74
2021/10/07 09:55:24;;;;;;;7.40;3.13;;;13.40;99.90;;;;;;4897920;29;20518;-73
2021/10/07 09:58:00;;;;;;;5.30;3.55;;;13.70;99.90;;;;;;4897997;29;20032;-73
2021/10/07 10:00:29;;;;;;;3.80;2.83;;;13.80;99.90;;;;;;4896687;29;20062;-74
2021/10/07 10:02:57;;;;;;;3.35;2.70;;;13.60;99.90;;;;;;4897010;29;20087;-76
2021/10/07 10:05:23;;;;;;;6.35;2.97;;;13.50;99.90;;;;;;4897377;29;20033;-73
2021/10/07 10:07:49;;;;;;;3.83;3.40;;;13.50;99.90;;;;;;4912520;29;20025;-74
2021/10/07 10:10:15;;;;;;;4.07;2.97;;;13.50;99.90;;;;;;4897549;29;20083;-74
2021/10/07 10:12:41;;;;;;;4.60;2.97;;;13.80;99.90;;;;;;4897876;29;20095;-75
2021/10/07 10:15:09;;;;;;;2.67;2.42;;;13.90;99.90;;;;;;4897013;29;20044;-74
2021/10/07 10:17:36;;;;;;;4.70;2.30;;;13.80;99.90;;;;;;4897524;29;20091;-74
2021/10/07 10:20:09;;;;;;;4.78;2.78;;;14.00;99.90;;;;;;4897993;29;20027;-75
2021/10/07 10:22:35;;;;;;;3.38;2.50;;;14.40;99.90;;;;;;4898213;29;20035;-75
2021/10/07 10:25:01;;;;;;;4.22;2.22;;;14.80;99.90;;;;;;4896998;29;20111;-76
2021/10/07 10:27:46;;;;;;;4.63;2.53;;;14.80;99.90;;;;;;4897439;29;20103;-75
2021/10/07 10:30:30;;;;;;;3.45;2.70;;;14.80;99.90;;;;;;4911989;29;20020;-74
2021/10/07 10:32:59;;;;;;;4.20;2.83;;;14.60;99.90;;;;;;4897526;29;20396;-74
2021/10/07 10:35:30;;;;;;;3.20;2.90;;;15.10;99.90;;;;;;4896970;29;20419;-75
2021/10/07 10:38:00;;;;;;;4.78;2.35;;;15.60;99.90;;;;;;4897249;29;20765;-75
2021/10/07 10:40:26;;;;;;;4.63;2.65;;;15.20;99.90;;;;;;4897143;29;20088;-74
2021/10/07 10:43:16;;;;;;;3.95;2.85;;;15.10;99.90;;;;;;4897117;29;20400;-75
2021/10/07 10:45:46;;;;;;;2.53;1.90;;;15.90;99.90;;;;;;4897173;29;20060;-75
2021/10/07 10:48:11;;;;;;;6.88;2.63;;;15.90;99.90;;;;;;4897483;29;20072;-75
2021/10/07 10:50:37;;;;;;;4.32;2.67;;;16.00;99.90;;;;;;4897106;29;20020;-75
2021/10/07 10:53:21;;;;;;;3.58;2.53;;;16.00;99.90;;;;;;4896954;29;20025;-75
2021/10/07 10:55:49;;;;;;;4.18;2.38;;;15.80;99.90;;;;;;4896832;29;20029;-75
2021/10/07 10:58:16;;;;;;;5.80;2.40;;;15.50;99.90;;;;;;4897243;29;20107;-74
2021/10/07 11:00:44;;;;;;;4.25;2.53;;;15.10;99.90;;;;;;4911635;29;20115;-75
2021/10/07 11:03:28;;;;;;;4.60;2.40;;;15.20;99.90;;;;;;4897160;29;20058;-75
2021/10/07 11:06:08;;;;;;;4.28;2.28;;;15.00;99.90;;;;;;4895068;29;20123;-75
2021/10/07 11:08:40;;;;;;;3.17;2.22;;;15.00;99.90;;;;;;4896567;29;20021;-75
2021/10/07 11:11:08;;;;;;;5.72;2.45;;;14.80;99.90;;;;;;4896855;29;20036;-75
2021/10/07 11:13:45;;;;;;;3.08;2.15;;;14.80;99.90;;;;;;4897104;29;20029;-75
2021/10/07 11:16:17;;;;;;;2.05;1.85;;;14.90;99.90;;;;;;4896750;29;20391;-76
2021/10/07 11:18:44;;;;;;;4.60;2.10;;;14.80;99.90;;;;;;4896832;29;20472;-74
2021/10/07 11:21:15;;;;;;;3.38;2.05;;;14.70;99.90;;;;;;4896863;29;20176;-75
2021/10/07 11:23:42;;;;;;;2.58;1.90;;;14.90;99.90;;;;;;4911108;29;20103;-74
2021/10/07 11:26:07;;;;;;;2.10;1.80;;;15.20;99.90;;;;;;4911513;29;20032;-74
2021/10/07 11:28:37;;;;;;;3.33;2.50;;;15.30;99.90;;;;;;4897225;29;20031;-73
2021/10/07 11:31:14;;;;;;;4.03;2.10;;;15.60;99.90;;;;;;4897095;29;20134;-74
2021/10/07 11:33:46;;;;;;;3.35;2.20;;;15.50;99.90;;;;;;4896995;29;20039;-74
2021/10/07 11:36:17;;;;;;;2.97;2.40;;;16.40;99.90;;;;;;4897452;29;20020;-75
2021/10/07 11:38:45;;;;;;;3.47;2.67;;;15.80;99.90;;;;;;4915606;29;20054;-75
2021/10/07 11:41:13;;;;;;;4.03;2.40;;;15.80;99.90;;;;;;4915822;29;20051;-75
2021/10/07 11:43:40;;;;;;;4.10;3.10;;;16.10;99.90;;;;;;4916114;29;20020;-74
2021/10/07 11:46:11;;;;;;;4.18;3.60;;;16.70;99.90;;;;;;4920605;29;20020;-76
2021/10/07 11:48:37;;;;;;;4.45;2.70;;;16.70;99.90;;;;;;4919807;29;20115;-75
2021/10/07 11:51:05;;;;;;;4.70;2.92;;;16.60;99.90;;;;;;4920083;29;20107;-74
2021/10/07 11:53:34;;;;;;;3.45;3.13;;;16.40;99.90;;;;;;4920587;29;20364;-74
2021/10/07 11:56:08;;;;;;;3.47;2.97;;;15.90;99.90;;;;;;4920170;29;20032;-73
2021/10/07 11:58:34;;;;;;;3.08;2.60;;;15.30;99.90;;;;;;4920841;29;20052;-74
2021/10/07 12:01:00;;;;;;;3.85;2.63;;;15.60;99.90;;;;;;4918379;29;20033;-74
2021/10/07 12:03:31;;;;;;;2.58;1.80;;;15.70;99.90;;;;;;4903923;29;20020;-81
2021/10/07 12:06:00;;;;;;;3.72;1.67;;;15.80;99.90;;;;;;4901011;29;20028;-79
2021/10/07 12:08:30;;;;;;;3.03;1.70;;;16.30;99.90;;;;;;4911419;29;20021;-79
2021/10/07 12:11:05;;;;;;;1.60;1.45;;;16.20;99.90;;;;;;4913850;29;20115;-79
2021/10/07 12:13:38;;;;;;;2.53;1.35;;;16.30;99.90;;;;;;4903363;29;20035;-79
2021/10/07 12:16:04;;;;;;;2.58;1.45;;;16.80;99.90;;;;;;4902011;29;20049;-79
2021/10/07 12:18:33;;;;;;;1.77;1.67;;;16.90;99.90;;;;;;4917734;29;20024;-79
2021/10/07 12:21:20;;;;;;;1.95;1.40;;;17.20;99.90;;;;;;4902918;29;20052;-80
2021/10/07 12:23:53;;;;;;;2.05;1.50;;;17.40;99.90;;;;;;4900896;29;20068;-79
2021/10/07 12:26:27;;;;;;;4.53;1.73;;;17.60;99.90;;;;;;4901146;29;20025;-80
2021/10/07 12:28:54;;;;;;;1.70;1.50;;;17.40;99.90;;;;;;4901831;29;20100;-80
2021/10/07 12:31:25;;;;;;;2.80;1.70;;;17.40;99.90;;;;;;4902185;29;20056;-80
2021/10/07 12:34:10;;;;;;;2.20;1.60;;;16.60;99.90;;;;;;4899842;29;20032;-80
2021/10/07 12:36:40;;;;;;;2.10;1.92;;;15.90;99.90;;;;;;4903435;29;20047;-78
2021/10/07 12:39:34;;;;;;;2.58;2.33;;;15.70;99.90;;;;;;4918760;29;20119;-78
2021/10/07 12:42:04;;;;;;;2.42;1.55;;;15.40;99.90;;;;;;4918955;29;20513;-79
2021/10/07 12:44:35;;;;;;;2.05;1.70;;;15.90;99.90;;;;;;4902281;29;20036;-79
2021/10/07 12:47:04;;;;;;;2.58;2.00;;;16.10;99.90;;;;;;4900359;29;20113;-79
2021/10/07 12:49:38;;;;;;;3.28;1.90;;;15.80;99.90;;;;;;4900951;29;20033;-79
2021/10/07 12:52:38;;;;;;;3.65;2.05;;;15.80;99.90;;;;;;4900798;29;20021;-80
2021/10/07 12:55:11;;;;;;;3.75;2.33;;;15.20;99.90;;;;;;4898082;29;20580;-79